메인 페이지
METAR-TAF:

METAR-TAF

공항 :

Çorlu, 터키

위도: 41-08N, 경도: 027-55E, 고도: 173m

현재 날씨관측

예보는 23분 전, 14:50시(UTC)에 발표되었습니다.
북동7kt
온도 19°C
습도 73%
기압 1022 hPa
시정 10km 이상
1500m 미만 상공 구름 및 적란운 없음

METAR: LTBU 221450Z 05007KT CAVOK 19/14 Q1022 RMK RWY22 04007KT

시각: 18:13 (15:13 UTC)

예보

예보는 4 시간 33분 전, 10:40시(UTC)에 발표되었습니다.
예보 대상 시간: 22일 12시부터 23일 12시까지 (UTC)
7kt
시정 10km 이상
고도 3200ft 상공 구름 보통
전환 중
22일 22시부터 23일 01시까지 (UTC)
시정: 4000m
고도 1600ft 상공 구름 많음
박무
확률 40%
23일 02시부터 23일 06시까지 (UTC)
시정: 0800m
고도 800ft 상공 구름 많음
안개
전환 중
23일 06시부터 23일 09시까지 (UTC)
시정 10km 이상
고도 3200ft 상공 구름 보통

TAF: LTBU 221040Z 2212/2312 01007KT 9999 SCT032 BECMG 2222/2301 4000 BR BKN016 PROB40 2302/2306 0800 FG BKN008 BECMG 2306/2309 9999 NSW SCT032

4,000개 이상의 공항 관측 자료 및 예보 (METAR 및 TAF 보고).

지도상에서 검색 가능한 기상관측소가 노란 점과 빨간 점으로 표시되어 있습니다.

기상관측소 명을 보려면 표시 위로 마우스를 이동하세요.

날씨 관측과 예보를 보려면 클릭하세요.

지도 변경 : 확대하려면 엑스 표시가 있는 녹색 버튼, 축소하려면 빼기 표시가 있는 녹색 버튼, 다음 페이지의 지도를 보려면 녹색 화살표를 클릭하세요.


METAR-TAF: